createdAt,value
2022-08-10T00:01:53.941Z,94934.53
2022-08-10T00:04:24.541Z,94941.63
2022-08-10T00:06:52.704Z,94935.63
2022-08-10T00:09:19.645Z,94927.09
2022-08-10T00:11:46.315Z,94938.75
2022-08-10T00:14:13.002Z,94932.78
2022-08-10T00:16:39.704Z,94937.66
2022-08-10T00:19:06.436Z,94934.63
2022-08-10T00:21:33.043Z,94936.50
2022-08-10T00:23:59.668Z,94931.09
2022-08-10T00:26:26.539Z,94925.81
2022-08-10T00:29:13.119Z,94934.03
2022-08-10T00:31:57.813Z,94922.88
2022-08-10T00:34:27.449Z,94927.22
2022-08-10T00:36:54.478Z,94922.81
2022-08-10T00:39:21.490Z,94919.19
2022-08-10T00:42:06.659Z,94928.03
2022-08-10T00:44:43.006Z,94916.44
2022-08-10T00:47:35.574Z,94920.63
2022-08-10T00:49:57.512Z,94922.97
2022-08-10T00:52:25.303Z,94921.22
2022-08-10T00:54:52.614Z,94919.84
2022-08-10T00:57:19.509Z,94924.81
2022-08-10T00:59:57.730Z,94925.13
2022-08-10T01:02:27.090Z,94917.28
2022-08-10T01:05:00.342Z,94923.41
2022-08-10T01:07:46.017Z,94925.09
2022-08-10T01:10:30.188Z,94928.97
2022-08-10T01:13:33.943Z,94925.53
2022-08-10T01:16:21.438Z,94921.34
2022-08-10T01:18:56.392Z,94923.88
2022-08-10T01:21:34.863Z,94923.88
2022-08-10T01:24:04.253Z,94924.22
2022-08-10T01:26:40.531Z,94928.03
2022-08-10T01:29:42.409Z,94930.16
2022-08-10T01:32:11.733Z,94929.41
2022-08-10T01:35:03.302Z,94922.63
2022-08-10T01:37:32.678Z,94921.81
2022-08-10T01:40:01.561Z,94935.03
2022-08-10T01:42:31.326Z,94937.44
2022-08-10T01:45:00.997Z,94935.44
2022-08-10T01:47:56.670Z,94937.88
2022-08-10T01:50:35.882Z,94940.69
2022-08-10T01:53:26.476Z,94931.13
2022-08-10T01:55:55.099Z,94938.66
2022-08-10T01:58:23.266Z,94942.94
2022-08-10T02:00:51.869Z,94943.38
2022-08-10T02:03:20.066Z,94941.38
2022-08-10T02:05:49.858Z,94937.59
2022-08-10T02:08:17.897Z,94939.97
2022-08-10T02:10:45.691Z,94939.97
2022-08-10T02:13:15.464Z,94951.78
2022-08-10T02:16:01.358Z,94948.06
2022-08-10T02:18:29.981Z,94956.47
2022-08-10T02:20:57.733Z,94950.03
2022-08-10T02:23:32.758Z,94949.25
2022-08-10T02:26:00.851Z,94950.47
2022-08-10T02:28:31.367Z,94954.06
2022-08-10T02:31:11.417Z,94947.69
2022-08-10T02:33:56.894Z,94949.69
2022-08-10T02:36:26.919Z,94942.22
2022-08-10T02:38:59.037Z,94947.28
2022-08-10T02:45:02.450Z,94946.28
2022-08-10T02:45:19.860Z,94939.84
2022-08-10T02:47:21.839Z,94941.63
2022-08-10T02:50:11.014Z,94942.88
2022-08-10T02:52:48.339Z,94944.25
2022-08-10T02:55:42.867Z,94936.88
2022-08-10T02:58:18.389Z,94930.16
2022-08-10T03:00:52.180Z,94943.69
2022-08-10T03:03:25.715Z,94939.91
2022-08-10T03:06:04.769Z,94934.53
2022-08-10T03:08:34.578Z,94939.31
2022-08-10T03:11:03.223Z,94944.16
2022-08-10T03:13:31.253Z,94946.38
2022-08-10T03:15:58.832Z,94939.34
2022-08-10T03:18:26.053Z,94946.63
2022-08-10T03:20:53.526Z,94950.03
2022-08-10T03:23:23.486Z,94937.59
2022-08-10T03:25:54.948Z,94947.16
2022-08-10T03:28:23.167Z,94944.97
2022-08-10T03:30:50.223Z,94945.78
2022-08-10T03:33:17.562Z,94944.41
2022-08-10T03:36:40.004Z,94945.00
2022-08-10T03:38:30.931Z,94935.75
2022-08-10T03:40:59.458Z,94947.41
2022-08-10T03:43:26.825Z,94946.41
2022-08-10T03:45:56.692Z,94941.41
2022-08-10T03:48:45.236Z,94940.84
2022-08-10T03:51:16.329Z,94945.84
2022-08-10T03:54:04.281Z,94943.84
2022-08-10T03:56:32.447Z,94948.03
2022-08-10T03:59:00.901Z,94951.84
2022-08-10T04:02:52.871Z,94942.88
2022-08-10T04:04:19.263Z,94941.44
2022-08-10T04:06:54.710Z,94947.28
2022-08-10T04:09:23.213Z,94946.28
2022-08-10T04:11:49.945Z,94940.66
2022-08-10T04:14:38.413Z,94943.69
2022-08-10T04:17:03.379Z,94947.88
2022-08-10T04:19:38.140Z,94941.44
2022-08-10T04:22:09.030Z,94945.66
2022-08-10T04:24:36.820Z,94943.84
2022-08-10T04:27:03.674Z,94947.06
2022-08-10T04:29:30.573Z,94941.66
2022-08-10T04:31:57.285Z,94951.06
2022-08-10T04:34:26.908Z,94955.44
2022-08-10T04:36:55.493Z,94953.44
2022-08-10T04:39:22.541Z,94949.44
2022-08-10T04:41:49.534Z,94957.84
2022-08-10T04:44:16.269Z,94949.84
2022-08-10T04:46:56.234Z,94950.22
2022-08-10T04:49:54.769Z,94951.03
2022-08-10T04:52:13.521Z,94957.63
2022-08-10T04:54:40.412Z,94949.22
2022-08-10T04:57:09.188Z,94954.41
2022-08-10T04:59:36.169Z,94950.66
2022-08-10T05:02:21.304Z,94929.44
2022-08-10T05:04:49.792Z,94954.63
2022-08-10T05:07:18.483Z,94950.75
2022-08-10T05:10:04.039Z,94955.31
2022-08-10T05:12:38.298Z,94962.59
2022-08-10T05:15:10.743Z,94964.31
2022-08-10T05:17:38.262Z,94963.25
2022-08-10T05:20:07.667Z,94954.13
2022-08-10T05:22:37.050Z,94962.69
2022-08-10T05:25:05.266Z,94957.69
2022-08-10T05:27:32.438Z,94961.38
2022-08-10T05:30:02.139Z,94968.16
2022-08-10T05:32:31.453Z,94967.34
2022-08-10T05:34:58.384Z,94965.47
2022-08-10T05:38:09.314Z,94968.31
2022-08-10T05:40:12.802Z,94969.56
2022-08-10T05:42:40.281Z,94982.88
2022-08-10T05:45:10.390Z,94979.84
2022-08-10T05:48:54.953Z,94989.63
2022-08-10T05:50:28.162Z,94993.22
2022-08-10T05:52:55.189Z,94983.38
2022-08-10T05:55:23.657Z,94981.38
2022-08-10T05:57:51.873Z,94986.94
2022-08-10T06:00:37.081Z,94978.88
2022-08-10T06:03:08.567Z,94986.75
2022-08-10T06:05:37.493Z,94985.19
2022-08-10T06:08:09.309Z,94991.44
2022-08-10T06:10:50.867Z,94988.53
2022-08-10T06:13:59.502Z,94995.47
2022-08-10T06:16:31.500Z,94983.25
2022-08-10T06:19:00.030Z,94983.91
2022-08-10T06:21:27.846Z,94976.69
2022-08-10T06:23:55.592Z,94988.09
2022-08-10T06:26:22.416Z,94987.94
2022-08-10T06:29:03.312Z,94990.22
2022-08-10T06:31:47.041Z,94987.50
2022-08-10T06:34:19.803Z,94983.84
2022-08-10T06:36:46.911Z,94980.63
2022-08-10T06:39:32.453Z,94984.72
2022-08-10T06:42:15.831Z,94981.13
2022-08-10T06:44:54.922Z,94982.41
2022-08-10T06:47:25.910Z,94981.78
2022-08-10T06:49:59.930Z,94966.34
2022-08-10T06:52:31.853Z,94974.22
2022-08-10T06:54:59.790Z,94975.44
2022-08-10T06:57:29.173Z,94974.88
2022-08-10T06:59:57.052Z,94976.88
2022-08-10T07:02:30.500Z,94980.91
2022-08-10T07:05:05.858Z,94971.91
2022-08-10T07:07:36.242Z,94961.19
2022-08-10T07:10:03.123Z,94963.94
2022-08-10T07:12:31.582Z,94971.81
2022-08-10T07:14:59.712Z,94969.28
2022-08-10T07:17:27.772Z,94964.09
2022-08-10T07:19:59.099Z,94955.84
2022-08-10T07:23:54.598Z,94951.47
2022-08-10T07:25:19.417Z,94958.16
2022-08-10T07:27:59.160Z,94953.00
2022-08-10T07:30:30.965Z,94941.78
2022-08-10T07:32:59.270Z,94942.25
2022-08-10T07:35:26.916Z,94947.28
2022-08-10T07:37:54.957Z,94941.25
2022-08-10T07:40:22.846Z,94934.47
2022-08-10T07:42:52.934Z,94933.91
2022-08-10T07:45:20.175Z,94946.22
2022-08-10T07:47:55.072Z,94929.53
2022-08-10T07:50:24.758Z,94933.31
2022-08-10T07:52:54.604Z,94925.53
2022-08-10T07:56:02.184Z,94926.47
2022-08-10T07:58:10.520Z,94927.41
2022-08-10T08:00:37.912Z,94924.25
2022-08-10T08:03:07.636Z,94917.44
2022-08-10T08:05:57.734Z,94915.97
2022-08-10T08:08:22.048Z,94917.16
2022-08-10T08:10:49.346Z,94915.97
2022-08-10T08:13:17.603Z,94919.16
2022-08-10T08:16:18.595Z,94918.63
2022-08-10T08:18:32.757Z,94914.41
2022-08-10T08:21:18.985Z,94908.13
2022-08-10T08:24:16.129Z,94900.50
2022-08-10T08:26:39.353Z,94909.47
2022-08-10T08:29:06.330Z,94899.44
2022-08-10T08:31:33.263Z,94893.63
2022-08-10T08:34:00.921Z,94891.47
2022-08-10T08:36:28.150Z,94892.72
2022-08-10T08:38:55.742Z,94885.44
2022-08-10T08:41:40.840Z,94884.53
2022-08-10T08:44:40.030Z,94884.28
2022-08-10T08:48:04.167Z,94885.34
2022-08-10T08:50:59.511Z,94884.97
2022-08-10T08:54:02.595Z,94877.72
2022-08-10T08:56:35.769Z,94875.69
2022-08-10T08:59:24.255Z,94878.34
2022-08-10T09:02:14.396Z,94874.34
2022-08-10T09:04:52.842Z,94876.97
2022-08-10T09:08:01.079Z,94864.59
2022-08-10T09:11:00.613Z,94868.81
2022-08-10T09:13:32.399Z,94864.38
2022-08-10T09:16:33.319Z,94855.78
2022-08-10T09:19:35.015Z,94855.72
2022-08-10T09:22:19.413Z,94855.72
2022-08-10T09:24:54.898Z,94848.00
2022-08-10T09:27:24.706Z,94857.66
2022-08-10T09:29:57.288Z,94851.56
2022-08-10T09:36:13.601Z,94847.03
2022-08-10T09:36:21.930Z,94850.53
2022-08-10T09:40:12.375Z,94844.75
2022-08-10T09:42:29.146Z,94838.97
2022-08-10T09:45:22.053Z,94835.47
2022-08-10T09:48:31.211Z,94833.16
2022-08-10T09:54:29.080Z,94824.44
2022-08-10T09:57:44.121Z,94828.16
2022-08-10T10:00:20.227Z,94833.47
2022-08-10T10:02:52.794Z,94828.22
2022-08-10T10:05:50.512Z,94819.19
2022-08-10T10:08:22.199Z,94810.06
2022-08-10T10:11:04.262Z,94815.97
2022-08-10T10:14:03.466Z,94815.13
2022-08-10T10:17:02.194Z,94801.50
2022-08-10T10:20:09.820Z,94805.63
2022-08-10T10:23:15.304Z,94799.38
2022-08-10T10:25:55.460Z,94800.03
2022-08-10T10:29:24.883Z,94807.44
2022-08-10T10:31:48.952Z,94800.81
2022-08-10T10:34:18.924Z,94796.16
2022-08-10T10:36:46.300Z,94793.13
2022-08-10T10:39:14.924Z,94783.91
2022-08-10T10:41:56.027Z,94784.34
2022-08-10T10:45:00.782Z,94788.47
2022-08-10T10:47:56.113Z,94782.06
2022-08-10T10:50:41.832Z,94773.13
2022-08-10T10:53:22.113Z,94778.53
2022-08-10T10:56:14.450Z,94778.34
2022-08-10T10:59:01.052Z,94784.47
2022-08-10T11:01:43.303Z,94781.00
2022-08-10T11:04:37.661Z,94780.59
2022-08-10T11:07:18.303Z,94772.50
2022-08-10T11:10:05.099Z,94771.28
2022-08-10T11:14:23.228Z,94770.88
2022-08-10T11:15:52.681Z,94766.09
2022-08-10T11:18:26.151Z,94768.00
2022-08-10T11:21:01.501Z,94769.50
2022-08-10T11:24:47.376Z,94771.41
2022-08-10T11:26:52.200Z,94777.56
2022-08-10T11:29:25.681Z,94775.06
2022-08-10T11:32:03.972Z,94771.38
2022-08-10T11:34:46.843Z,94770.84
2022-08-10T11:38:28.407Z,94768.66
2022-08-10T11:40:26.991Z,94768.06
2022-08-10T11:43:15.523Z,94772.88
2022-08-10T11:45:52.434Z,94766.81
2022-08-10T11:48:54.904Z,94762.06
2022-08-10T11:51:36.030Z,94766.28
2022-08-10T11:54:20.131Z,94765.34
2022-08-10T11:56:55.376Z,94771.31
2022-08-10T11:59:46.442Z,94759.91
2022-08-10T12:02:15.405Z,94768.19
2022-08-10T12:04:52.149Z,94765.50
2022-08-10T12:10:05.209Z,94765.00
2022-08-10T12:10:13.475Z,94768.66
2022-08-10T12:12:58.964Z,94749.34
2022-08-10T12:15:55.888Z,94759.25
2022-08-10T12:18:30.169Z,94748.03
2022-08-10T12:20:59.540Z,94752.19
2022-08-10T12:23:39.319Z,94749.31
2022-08-10T12:26:12.281Z,94750.25
2022-08-10T12:28:51.275Z,94746.09
2022-08-10T12:31:24.171Z,94737.41
2022-08-10T12:34:03.150Z,94736.53
2022-08-10T12:37:12.111Z,94736.72
2022-08-10T12:40:33.421Z,94732.66
2022-08-10T12:44:06.655Z,94725.19
2022-08-10T12:46:17.541Z,94732.22
2022-08-10T12:49:10.390Z,94726.59
2022-08-10T12:51:46.912Z,94721.50
2022-08-10T12:54:32.965Z,94726.88
2022-08-10T12:57:04.339Z,94716.69
2022-08-10T12:59:32.022Z,94708.16
2022-08-10T13:02:07.710Z,94710.66
2022-08-10T13:04:38.167Z,94710.53
2022-08-10T13:09:34.598Z,94704.03
2022-08-10T13:12:34.923Z,94700.72
2022-08-10T13:15:45.918Z,94699.84
2022-08-10T13:18:17.734Z,94699.94
2022-08-10T13:20:51.332Z,94701.09
2022-08-10T13:23:21.912Z,94699.03
2022-08-10T13:25:50.841Z,94700.59
2022-08-10T13:28:35.380Z,94700.28
2022-08-10T13:31:06.931Z,94692.94
2022-08-10T13:34:41.782Z,94685.63
2022-08-10T13:36:27.977Z,94682.25
2022-08-10T13:38:58.980Z,94691.16
2022-08-10T13:41:30.938Z,94691.75
2022-08-10T13:43:59.521Z,94682.41
2022-08-10T13:46:26.720Z,94683.78
2022-08-10T13:48:54.783Z,94679.78
2022-08-10T13:51:56.660Z,94686.00
2022-08-10T13:54:14.709Z,94681.94
2022-08-10T13:56:44.802Z,94681.50
2022-08-10T13:59:16.280Z,94677.50
2022-08-10T14:01:50.454Z,94677.41
2022-08-10T14:04:19.615Z,94680.13
2022-08-10T14:06:57.111Z,94672.22
2022-08-10T14:09:28.464Z,94681.59
2022-08-10T14:11:56.379Z,94673.81
2022-08-10T14:14:24.800Z,94682.41
2022-08-10T14:16:51.992Z,94676.09
2022-08-10T14:19:29.405Z,94679.88
2022-08-10T14:21:56.391Z,94673.72
2022-08-10T14:24:28.588Z,94672.78
2022-08-10T14:27:06.270Z,94670.16
2022-08-10T14:29:58.680Z,94672.31
2022-08-10T14:32:28.293Z,94667.31
2022-08-10T14:36:19.808Z,94676.38
2022-08-10T14:37:56.780Z,94674.50
2022-08-10T14:40:26.956Z,94667.69
2022-08-10T14:43:01.810Z,94670.78
2022-08-10T14:45:32.112Z,94673.16
2022-08-10T14:48:17.942Z,94661.88
2022-08-10T14:50:55.921Z,94664.94
2022-08-10T14:53:28.619Z,94665.97
2022-08-10T14:56:00.975Z,94662.38
2022-08-10T14:59:05.535Z,94668.34
2022-08-10T15:02:01.150Z,94673.66
2022-08-10T15:04:26.549Z,94674.47
2022-08-10T15:07:12.215Z,94669.13
2022-08-10T15:10:00.102Z,94673.50
2022-08-10T15:12:38.439Z,94679.91
2022-08-10T15:15:08.621Z,94674.56
2022-08-10T15:17:39.715Z,94671.44
2022-08-10T15:20:20.239Z,94673.69
2022-08-10T15:23:01.701Z,94673.22
2022-08-10T15:25:30.374Z,94672.81
2022-08-10T15:28:05.655Z,94673.16
2022-08-10T15:30:40.416Z,94671.91
2022-08-10T15:34:03.270Z,94673.47
2022-08-10T15:36:36.982Z,94670.38
2022-08-10T15:39:17.194Z,94672.91
2022-08-10T15:42:22.842Z,94666.47
2022-08-10T15:44:55.922Z,94664.44
2022-08-10T15:47:46.198Z,94661.44
2022-08-10T15:50:25.852Z,94663.94
2022-08-10T15:53:00.828Z,94653.59
2022-08-10T15:55:41.095Z,94658.84
2022-08-10T15:58:18.923Z,94651.22
2022-08-10T16:01:02.273Z,94649.63
2022-08-10T16:03:54.420Z,94655.72
2022-08-10T16:06:34.853Z,94657.91
2022-08-10T16:10:24.842Z,94649.84
2022-08-10T16:12:05.901Z,94644.91
2022-08-10T16:14:36.022Z,94651.38
2022-08-10T16:17:03.654Z,94652.91
2022-08-10T16:19:30.728Z,94645.69
2022-08-10T16:22:02.185Z,94647.63
2022-08-10T16:24:37.900Z,94650.50
2022-08-10T16:27:07.599Z,94648.63
2022-08-10T16:29:56.039Z,94662.41
2022-08-10T16:32:24.719Z,94649.84
2022-08-10T16:34:51.701Z,94652.13
2022-08-10T16:37:19.156Z,94657.16
2022-08-10T16:39:58.470Z,94655.28
2022-08-10T16:42:31.548Z,94654.84
2022-08-10T16:45:03.590Z,94651.63
2022-08-10T16:47:36.949Z,94651.41
2022-08-10T16:50:07.338Z,94656.72
2022-08-10T16:52:35.076Z,94658.50
2022-08-10T16:55:23.856Z,94650.53
2022-08-10T16:57:56.972Z,94653.94
2022-08-10T17:00:25.190Z,94650.13
2022-08-10T17:02:55.406Z,94657.13
2022-08-10T17:06:03.576Z,94656.81
2022-08-10T17:08:13.690Z,94651.94
2022-08-10T17:10:41.818Z,94652.38
2022-08-10T17:13:10.449Z,94653.28
2022-08-10T17:15:49.720Z,94657.72
2022-08-10T17:18:27.694Z,94653.25
2022-08-10T17:20:59.748Z,94652.59
2022-08-10T17:23:33.419Z,94656.03
2022-08-10T17:26:04.221Z,94652.50
2022-08-10T17:28:35.350Z,94664.00
2022-08-10T17:31:24.010Z,94660.69
2022-08-10T17:34:12.199Z,94655.44
2022-08-10T17:36:40.021Z,94662.13
2022-08-10T17:39:11.761Z,94661.69
2022-08-10T17:41:39.229Z,94662.31
2022-08-10T17:44:06.811Z,94663.63
2022-08-10T17:46:41.382Z,94660.47
2022-08-10T17:49:09.652Z,94667.69
2022-08-10T17:51:38.762Z,94663.81
2022-08-10T17:54:09.209Z,94682.81
2022-08-10T17:56:37.665Z,94680.19
2022-08-10T17:59:11.951Z,94674.44
2022-08-10T18:01:58.719Z,94677.34
2022-08-10T18:04:41.233Z,94683.44
2022-08-10T18:07:10.447Z,94690.00
2022-08-10T18:09:40.499Z,94690.84
2022-08-10T18:12:18.010Z,94687.66
2022-08-10T18:14:47.842Z,94682.94
2022-08-10T18:17:18.773Z,94689.50
2022-08-10T18:19:48.651Z,94694.53
2022-08-10T18:22:15.930Z,94694.78
2022-08-10T18:24:44.764Z,94704.53
2022-08-10T18:27:13.312Z,94702.97
2022-08-10T18:29:43.279Z,94704.03
2022-08-10T18:32:11.818Z,94708.16
2022-08-10T18:34:41.600Z,94706.59
2022-08-10T18:37:10.368Z,94708.94
2022-08-10T18:39:39.477Z,94715.53
2022-08-10T18:42:14.191Z,94716.84
2022-08-10T18:44:45.222Z,94724.47
2022-08-10T18:47:36.513Z,94728.06
2022-08-10T18:50:10.371Z,94731.25
2022-08-10T18:52:39.252Z,94733.53
2022-08-10T18:55:35.337Z,94734.84
2022-08-10T18:58:37.883Z,94742.25
2022-08-10T19:01:17.850Z,94745.13
2022-08-10T19:04:21.945Z,94740.03
2022-08-10T19:07:22.905Z,94738.69
2022-08-10T19:10:14.761Z,94738.06
2022-08-10T19:13:19.297Z,94739.88
2022-08-10T19:15:57.017Z,94744.56
2022-08-10T19:18:31.094Z,94752.44
2022-08-10T19:21:05.083Z,94745.94
2022-08-10T19:23:43.305Z,94748.38
2022-08-10T19:26:44.130Z,94747.16
2022-08-10T19:30:00.871Z,94742.00
2022-08-10T19:32:26.293Z,94751.97
2022-08-10T19:35:01.466Z,94747.56
2022-08-10T19:37:35.639Z,94751.34
2022-08-10T19:40:43.513Z,94749.25
2022-08-10T19:43:59.423Z,94759.22
2022-08-10T19:46:38.113Z,94751.72
2022-08-10T19:49:21.332Z,94756.94
2022-08-10T19:52:11.031Z,94751.69
2022-08-10T19:54:57.093Z,94754.25
2022-08-10T19:57:50.229Z,94754.44
2022-08-10T20:00:22.743Z,94750.41
2022-08-10T20:03:12.077Z,94750.53
2022-08-10T20:06:18.181Z,94757.47
2022-08-10T20:08:53.219Z,94756.19
2022-08-10T20:11:44.253Z,94752.72
2022-08-10T20:14:28.107Z,94754.56
2022-08-10T20:17:07.140Z,94750.78
2022-08-10T20:19:52.713Z,94756.94
2022-08-10T20:22:28.736Z,94758.16
2022-08-10T20:25:15.607Z,94755.13
2022-08-10T20:28:19.840Z,94763.72
2022-08-10T20:30:59.231Z,94757.22
2022-08-10T20:33:28.569Z,94762.47
2022-08-10T20:36:08.583Z,94759.53
2022-08-10T20:38:44.098Z,94751.16
2022-08-10T20:42:08.260Z,94755.69
2022-08-10T20:44:54.004Z,94749.53
2022-08-10T20:47:42.554Z,94751.00
2022-08-10T20:50:46.221Z,94754.47
2022-08-10T20:53:15.847Z,94745.66
2022-08-10T20:55:54.718Z,94746.59
2022-08-10T20:58:39.841Z,94747.22
2022-08-10T21:01:17.553Z,94746.59
2022-08-10T21:04:03.511Z,94747.91
2022-08-10T21:06:52.377Z,94738.81
2022-08-10T21:09:37.501Z,94745.41
2022-08-10T21:12:19.021Z,94746.38
2022-08-10T21:15:01.267Z,94745.25
2022-08-10T21:17:43.173Z,94749.41
2022-08-10T21:20:34.406Z,94748.75
2022-08-10T21:23:05.843Z,94736.06
2022-08-10T21:28:52.239Z,94747.88
2022-08-10T21:31:45.882Z,94747.72
2022-08-10T21:34:52.111Z,94748.06
2022-08-10T21:37:39.815Z,94741.22
2022-08-10T21:40:36.198Z,94738.78
2022-08-10T21:43:49.689Z,94746.81
2022-08-10T21:46:55.101Z,94747.84
2022-08-10T21:50:12.196Z,94751.25
2022-08-10T21:53:11.295Z,94741.81
2022-08-10T21:56:09.659Z,94739.84
2022-08-10T21:59:21.568Z,94745.72
2022-08-10T22:02:11.434Z,94755.66
2022-08-10T22:04:57.808Z,94750.78
2022-08-10T22:07:44.599Z,94750.19
2022-08-10T22:10:31.202Z,94744.28
2022-08-10T22:13:21.461Z,94742.38
2022-08-10T22:16:11.971Z,94751.59
2022-08-10T22:19:03.655Z,94753.97
2022-08-10T22:21:55.565Z,94759.06
2022-08-10T22:25:31.771Z,94746.03
2022-08-10T22:28:19.121Z,94745.97
2022-08-10T22:31:26.946Z,94749.72
2022-08-10T22:31:30.922Z,94740.47
2022-08-10T22:34:55.628Z,94742.22
2022-08-10T22:38:07.589Z,94749.53
2022-08-10T22:40:53.358Z,94739.50
2022-08-10T22:43:46.719Z,94749.91
2022-08-10T22:46:42.511Z,94735.38
2022-08-10T22:49:09.534Z,94742.38
2022-08-10T22:51:55.433Z,94734.34
2022-08-10T22:54:57.860Z,94732.34
2022-08-10T22:57:43.248Z,94741.09
2022-08-10T23:00:15.842Z,94741.66
2022-08-10T23:03:00.814Z,94737.91
2022-08-10T23:05:33.593Z,94740.63
2022-08-10T23:08:11.405Z,94737.31
2022-08-10T23:10:57.554Z,94736.31
2022-08-10T23:13:36.907Z,94725.69
2022-08-10T23:16:40.402Z,94736.75
2022-08-10T23:19:11.738Z,94728.41
2022-08-10T23:22:07.522Z,94744.25
2022-08-10T23:24:38.822Z,94734.75
2022-08-10T23:27:12.266Z,94740.44
2022-08-10T23:30:03.668Z,94730.91
2022-08-10T23:32:31.953Z,94726.56
2022-08-10T23:36:31.881Z,94721.63
2022-08-10T23:37:48.578Z,94724.03
2022-08-10T23:40:17.067Z,94727.34
2022-08-10T23:42:50.459Z,94731.78
2022-08-10T23:45:28.087Z,94721.94
2022-08-10T23:48:01.202Z,94715.28
2022-08-10T23:50:28.796Z,94723.06
2022-08-10T23:52:58.931Z,94718.72
2022-08-10T23:55:29.065Z,94723.72
2022-08-10T23:58:05.885Z,94722.38
